createdAt,value
2022-12-06T00:00:01.782Z,52.58
2022-12-06T00:03:18.640Z,73.95
2022-12-06T00:06:28.013Z,75.57
2022-12-06T00:09:41.288Z,74.10
2022-12-06T00:12:47.078Z,73.97
2022-12-06T00:15:50.563Z,83.97
2022-12-06T00:19:03.490Z,73.30
2022-12-06T00:22:27.824Z,75.78
2022-12-06T00:25:33.012Z,68.82
2022-12-06T00:28:42.369Z,58.15
2022-12-06T00:31:52.002Z,61.05
2022-12-06T00:34:55.505Z,48.42
2022-12-06T00:38:04.689Z,62.13
2022-12-06T00:41:16.291Z,59.95
2022-12-06T00:44:24.033Z,63.88
2022-12-06T00:47:29.138Z,68.50
2022-12-06T00:50:41.155Z,73.07
2022-12-06T00:53:50.846Z,54.38
2022-12-06T00:56:57.061Z,61.67
2022-12-06T01:00:52.369Z,59.25
2022-12-06T01:04:03.268Z,53.30
2022-12-06T01:10:18.631Z,52.17
2022-12-06T01:13:23.390Z,50.47
2022-12-06T01:16:30.304Z,52.28
2022-12-06T01:19:41.821Z,51.70
2022-12-06T01:22:51.897Z,55.53
2022-12-06T01:25:55.617Z,57.65
2022-12-06T01:29:03.571Z,58.17
2022-12-06T01:32:09.365Z,58.85
2022-12-06T01:35:14.003Z,61.42
2022-12-06T01:38:17.714Z,69.75
2022-12-06T01:41:27.121Z,51.40
2022-12-06T01:44:45.523Z,69.20
2022-12-06T01:47:50.071Z,47.38
2022-12-06T01:51:03.015Z,48.38
2022-12-06T01:54:10.266Z,49.00
2022-12-06T01:57:17.008Z,59.80
2022-12-06T02:00:22.669Z,40.05
2022-12-06T02:03:35.772Z,53.72
2022-12-06T02:06:45.937Z,37.13
2022-12-06T02:09:50.712Z,41.95
2022-12-06T02:12:57.873Z,47.67
2022-12-06T02:16:21.049Z,41.85
2022-12-06T02:19:59.143Z,43.65
2022-12-06T02:23:23.130Z,39.63
2022-12-06T02:26:39.185Z,44.35
2022-12-06T02:30:11.189Z,41.70
2022-12-06T02:33:30.121Z,39.05
2022-12-06T02:36:42.749Z,42.25
2022-12-06T02:39:52.595Z,38.17
2022-12-06T02:43:11.655Z,38.50
2022-12-06T02:46:20.975Z,38.95
2022-12-06T02:49:30.555Z,37.25
2022-12-06T02:52:55.642Z,41.85
2022-12-06T02:56:02.854Z,32.53
2022-12-06T02:59:06.976Z,37.20
2022-12-06T03:02:15.400Z,32.35
2022-12-06T03:05:37.014Z,38.67
2022-12-06T03:08:50.781Z,43.58
2022-12-06T03:12:03.686Z,36.45
2022-12-06T03:15:16.163Z,43.03
2022-12-06T03:18:29.816Z,39.78
2022-12-06T03:21:42.837Z,40.65
2022-12-06T03:24:53.426Z,34.88
2022-12-06T03:28:08.857Z,39.50
2022-12-06T03:31:17.309Z,39.30
2022-12-06T03:34:30.880Z,30.30
2022-12-06T03:37:46.210Z,37.58
2022-12-06T03:40:58.807Z,36.97
2022-12-06T03:44:03.368Z,35.33
2022-12-06T03:47:17.405Z,34.13
2022-12-06T03:50:27.615Z,34.17
2022-12-06T03:53:47.601Z,29.77
2022-12-06T03:56:54.907Z,33.05
2022-12-06T03:59:59.282Z,39.05
2022-12-06T04:03:07.639Z,41.05
2022-12-06T04:06:12.738Z,40.63
2022-12-06T04:09:38.399Z,41.10
2022-12-06T04:13:04.878Z,39.70
2022-12-06T04:16:29.265Z,43.92
2022-12-06T04:19:40.097Z,46.65
2022-12-06T04:23:08.543Z,39.78
2022-12-06T04:26:15.894Z,37.90
2022-12-06T04:29:36.600Z,45.13
2022-12-06T04:35:15.681Z,34.00
2022-12-06T04:38:36.885Z,43.53
2022-12-06T04:42:18.270Z,33.88
2022-12-06T04:45:22.106Z,31.98
2022-12-06T04:48:28.365Z,33.60
2022-12-06T04:51:43.415Z,35.85
2022-12-06T04:54:49.883Z,35.30
2022-12-06T04:57:56.708Z,38.35
2022-12-06T05:01:00.291Z,35.35
2022-12-06T05:04:05.928Z,37.97
2022-12-06T05:07:16.425Z,37.97
2022-12-06T05:10:22.517Z,31.17
2022-12-06T05:13:27.868Z,36.88
2022-12-06T05:16:37.436Z,29.52
2022-12-06T05:19:44.938Z,30.50
2022-12-06T05:22:52.665Z,30.98
2022-12-06T05:26:13.645Z,35.30
2022-12-06T05:29:19.980Z,33.45
2022-12-06T05:32:39.477Z,28.55
2022-12-06T05:35:50.896Z,28.35
2022-12-06T05:39:00.952Z,26.27
2022-12-06T05:42:13.413Z,34.00
2022-12-06T05:45:23.084Z,30.00
2022-12-06T05:48:35.171Z,29.70
2022-12-06T05:51:44.572Z,32.33
2022-12-06T05:54:56.329Z,32.65
2022-12-06T05:58:04.545Z,30.70
2022-12-06T06:01:12.784Z,26.30
2022-12-06T06:04:16.376Z,29.02
2022-12-06T06:07:26.642Z,35.33
2022-12-06T06:10:33.834Z,28.27
2022-12-06T06:13:50.496Z,32.70
2022-12-06T06:16:59.770Z,35.10
2022-12-06T06:20:16.917Z,34.97
2022-12-06T06:23:25.634Z,38.60
2022-12-06T06:26:32.804Z,39.38
2022-12-06T06:29:44.933Z,34.63
2022-12-06T06:32:53.573Z,39.70
2022-12-06T06:35:57.055Z,42.42
2022-12-06T06:39:00.577Z,35.00
2022-12-06T06:42:07.100Z,42.03
2022-12-06T06:45:11.367Z,44.20
2022-12-06T06:48:15.420Z,32.22
2022-12-06T06:51:19.341Z,43.90
2022-12-06T06:54:27.934Z,43.30
2022-12-06T06:57:32.736Z,36.22
2022-12-06T07:00:36.085Z,42.05
2022-12-06T07:03:39.436Z,35.33
2022-12-06T07:06:45.704Z,34.10
2022-12-06T07:09:50.764Z,35.30
2022-12-06T07:12:55.811Z,30.63
2022-12-06T07:16:01.770Z,32.15
2022-12-06T07:19:10.055Z,41.65
2022-12-06T07:22:13.599Z,41.97
2022-12-06T07:25:19.705Z,35.08
2022-12-06T07:28:27.018Z,33.63
2022-12-06T07:31:35.472Z,39.13
2022-12-06T07:34:40.112Z,36.75
2022-12-06T07:37:44.105Z,36.38
2022-12-06T07:41:04.042Z,40.05
2022-12-06T07:44:37.679Z,36.58
2022-12-06T07:47:44.952Z,36.40
2022-12-06T07:50:48.407Z,75.50
2022-12-06T07:53:55.005Z,38.05
2022-12-06T07:56:58.563Z,33.75
2022-12-06T08:00:04.520Z,36.38
2022-12-06T08:03:17.226Z,31.23
2022-12-06T08:06:20.992Z,87.65
2022-12-06T08:09:27.467Z,38.00
2022-12-06T08:12:32.085Z,37.85
2022-12-06T08:15:42.914Z,32.05
2022-12-06T08:18:53.641Z,32.03
2022-12-06T08:22:01.562Z,36.28
2022-12-06T08:25:05.317Z,31.13
2022-12-06T08:28:16.164Z,30.92
2022-12-06T08:31:24.138Z,41.33
2022-12-06T08:37:30.970Z,36.13
2022-12-06T08:40:35.450Z,33.78
2022-12-06T08:43:41.460Z,38.42
2022-12-06T08:46:47.041Z,43.15
2022-12-06T08:49:51.646Z,43.25
2022-12-06T08:52:58.472Z,45.92
2022-12-06T08:56:03.016Z,51.10
2022-12-06T08:59:07.109Z,38.70
2022-12-06T09:02:13.329Z,38.33
2022-12-06T09:05:16.963Z,39.22
2022-12-06T09:08:24.053Z,40.10
2022-12-06T09:11:27.607Z,42.00
2022-12-06T09:14:31.912Z,41.13
2022-12-06T09:17:37.708Z,40.10
2022-12-06T09:20:41.927Z,44.58
2022-12-06T09:23:46.068Z,41.13
2022-12-06T09:26:56.564Z,39.58
2022-12-06T09:30:00.453Z,47.45
2022-12-06T09:33:05.460Z,38.60
2022-12-06T09:36:14.180Z,41.33
2022-12-06T09:39:24.778Z,66.65
2022-12-06T09:42:51.875Z,53.80
2022-12-06T09:46:12.366Z,36.05
2022-12-06T09:49:29.165Z,35.78
2022-12-06T09:52:51.702Z,35.47
2022-12-06T09:56:06.249Z,37.15
2022-12-06T09:59:18.015Z,44.70
2022-12-06T10:02:36.444Z,36.67
2022-12-06T10:05:58.167Z,35.72
2022-12-06T10:09:22.475Z,30.85
2022-12-06T10:12:39.327Z,47.92
2022-12-06T10:15:53.649Z,42.20
2022-12-06T10:19:12.748Z,62.60
2022-12-06T10:22:28.456Z,36.20
2022-12-06T10:25:41.548Z,31.95
2022-12-06T10:28:46.927Z,25.90
2022-12-06T10:34:56.304Z,25.35
2022-12-06T10:38:07.339Z,32.55
2022-12-06T10:41:16.819Z,22.73
2022-12-06T10:44:27.080Z,21.55
2022-12-06T10:47:42.602Z,23.50
2022-12-06T10:50:52.160Z,21.48
2022-12-06T10:54:02.946Z,20.58
2022-12-06T10:57:13.966Z,18.30
2022-12-06T11:00:20.677Z,20.35
2022-12-06T11:03:31.241Z,19.05
2022-12-06T11:06:48.852Z,15.00
2022-12-06T11:09:57.839Z,15.82
2022-12-06T11:13:13.149Z,16.55
2022-12-06T11:16:24.265Z,13.80
2022-12-06T11:19:31.990Z,16.52
2022-12-06T11:22:48.995Z,18.23
2022-12-06T11:26:03.864Z,14.32
2022-12-06T11:29:13.310Z,16.55
2022-12-06T11:32:28.219Z,13.75
2022-12-06T11:35:32.935Z,13.32
2022-12-06T11:38:45.289Z,11.25
2022-12-06T11:42:05.429Z,11.23
2022-12-06T11:45:28.326Z,10.32
2022-12-06T11:48:37.726Z,10.05
2022-12-06T11:51:47.843Z,9.15
2022-12-06T11:55:03.194Z,9.95
2022-12-06T11:58:17.517Z,11.35
2022-12-06T12:01:22.808Z,9.10
2022-12-06T12:04:41.404Z,6.50
2022-12-06T12:08:02.710Z,7.82
2022-12-06T12:11:08.014Z,10.05
2022-12-06T12:14:18.094Z,9.15
2022-12-06T12:17:27.413Z,9.05
2022-12-06T12:20:37.984Z,9.95
2022-12-06T12:23:48.124Z,15.30
2022-12-06T12:26:53.114Z,12.68
2022-12-06T12:30:24.623Z,9.38
2022-12-06T12:33:39.163Z,11.60
2022-12-06T12:36:58.886Z,13.27
2022-12-06T12:40:39.110Z,13.65
2022-12-06T12:47:41.666Z,14.38
2022-12-06T12:51:12.640Z,14.85
2022-12-06T12:54:33.172Z,59.42
2022-12-06T12:57:39.433Z,131.95
2022-12-06T13:00:50.604Z,12.68
2022-12-06T13:04:02.591Z,14.73
2022-12-06T13:07:15.771Z,12.88
2022-12-06T13:10:29.484Z,14.30
2022-12-06T13:13:39.092Z,13.00
2022-12-06T13:16:47.025Z,12.85
2022-12-06T13:19:53.591Z,14.65
2022-12-06T13:23:02.010Z,12.50
2022-12-06T13:26:14.886Z,17.27
2022-12-06T13:29:25.796Z,15.02
2022-12-06T13:32:36.520Z,13.25
2022-12-06T13:35:44.509Z,15.15
2022-12-06T13:38:49.007Z,14.63
2022-12-06T13:42:13.638Z,12.15
2022-12-06T13:45:41.032Z,14.57
2022-12-06T13:48:52.393Z,12.65
2022-12-06T13:51:55.712Z,16.67
2022-12-06T13:54:59.293Z,13.07
2022-12-06T13:58:51.410Z,12.68
2022-12-06T14:01:56.904Z,12.43
2022-12-06T14:05:01.842Z,14.75
2022-12-06T14:08:06.117Z,11.52
2022-12-06T14:11:31.301Z,12.82
2022-12-06T14:14:36.625Z,12.07
2022-12-06T14:21:07.717Z,9.25
2022-12-06T14:24:27.175Z,10.73
2022-12-06T14:27:33.932Z,11.00
2022-12-06T14:30:40.299Z,10.95
2022-12-06T14:33:45.838Z,13.05
2022-12-06T14:36:51.976Z,12.73
2022-12-06T14:40:11.642Z,14.07
2022-12-06T14:43:33.777Z,12.15
2022-12-06T14:46:43.984Z,12.40
2022-12-06T14:50:26.283Z,12.93
2022-12-06T14:53:38.141Z,15.48
2022-12-06T14:56:49.100Z,15.00
2022-12-06T15:00:25.598Z,13.05
2022-12-06T15:03:35.602Z,16.52
2022-12-06T15:06:58.195Z,19.98
2022-12-06T15:10:28.245Z,17.88
2022-12-06T15:13:39.306Z,20.35
2022-12-06T15:16:45.254Z,21.02
2022-12-06T15:20:03.797Z,19.77
2022-12-06T15:23:43.077Z,20.80
2022-12-06T15:26:48.142Z,22.48
2022-12-06T15:30:01.287Z,20.98
2022-12-06T15:33:18.431Z,31.75
2022-12-06T15:36:23.634Z,23.67
2022-12-06T15:39:27.843Z,23.50
2022-12-06T15:42:33.121Z,18.73
2022-12-06T15:45:36.590Z,18.30
2022-12-06T15:48:41.120Z,22.48
2022-12-06T15:51:44.701Z,22.05
2022-12-06T15:54:47.965Z,21.15
2022-12-06T15:57:54.619Z,20.52
2022-12-06T16:00:58.985Z,19.40
2022-12-06T16:04:03.300Z,19.23
2022-12-06T16:07:06.530Z,19.38
2022-12-06T16:10:10.402Z,21.55
2022-12-06T16:13:24.445Z,20.27
2022-12-06T16:16:28.310Z,20.42
2022-12-06T16:20:21.833Z,17.63
2022-12-06T16:24:12.435Z,23.70
2022-12-06T16:27:14.425Z,19.00
2022-12-06T16:30:33.947Z,17.77
2022-12-06T16:34:52.258Z,22.25
2022-12-06T16:37:55.576Z,19.38
2022-12-06T16:41:07.327Z,20.75
2022-12-06T16:44:11.354Z,20.48
2022-12-06T16:47:35.477Z,20.17
2022-12-06T16:50:49.518Z,19.90
2022-12-06T16:53:57.605Z,18.88
2022-12-06T16:57:19.533Z,15.50
2022-12-06T17:00:37.459Z,20.50
2022-12-06T17:03:55.040Z,31.85
2022-12-06T17:07:13.590Z,51.53
2022-12-06T17:10:29.524Z,20.02
2022-12-06T17:13:41.838Z,28.30
2022-12-06T17:16:55.126Z,33.83
2022-12-06T17:20:12.320Z,29.08
2022-12-06T17:23:34.510Z,27.27
2022-12-06T17:26:47.963Z,79.47
2022-12-06T17:30:00.081Z,22.65
2022-12-06T17:33:08.311Z,24.52
2022-12-06T17:36:24.935Z,18.75
2022-12-06T17:39:31.414Z,20.63
2022-12-06T17:42:57.364Z,21.50
2022-12-06T17:46:09.567Z,17.60
2022-12-06T17:49:24.694Z,20.08
2022-12-06T17:52:35.799Z,21.35
2022-12-06T17:55:43.658Z,22.70
2022-12-06T18:02:15.286Z,19.25
2022-12-06T18:05:19.408Z,20.92
2022-12-06T18:08:28.953Z,20.00
2022-12-06T18:11:36.895Z,15.50
2022-12-06T18:14:45.798Z,16.60
2022-12-06T18:17:59.177Z,17.92
2022-12-06T18:21:10.852Z,16.67
2022-12-06T18:24:22.691Z,14.88
2022-12-06T18:27:32.820Z,18.50
2022-12-06T18:30:41.831Z,19.80
2022-12-06T18:33:48.481Z,17.92
2022-12-06T18:37:03.949Z,18.58
2022-12-06T18:40:16.252Z,21.48
2022-12-06T18:43:21.216Z,18.58
2022-12-06T18:46:28.056Z,21.88
2022-12-06T18:49:37.831Z,24.38
2022-12-06T18:52:45.793Z,23.48
2022-12-06T18:55:59.277Z,20.73
2022-12-06T18:59:21.007Z,21.35
2022-12-06T19:02:32.985Z,21.02
2022-12-06T19:06:02.010Z,20.65
2022-12-06T19:09:13.305Z,24.20
2022-12-06T19:12:23.967Z,19.20
2022-12-06T19:15:33.733Z,17.50
2022-12-06T19:18:54.055Z,17.38
2022-12-06T19:22:05.510Z,16.45
2022-12-06T19:25:20.192Z,17.63
2022-12-06T19:28:28.082Z,18.48
2022-12-06T19:31:40.500Z,15.43
2022-12-06T19:34:55.451Z,17.00
2022-12-06T19:38:11.433Z,16.50
2022-12-06T19:41:24.423Z,16.42
2022-12-06T19:44:32.639Z,13.00
2022-12-06T19:47:40.739Z,14.55
2022-12-06T19:51:14.086Z,13.88
2022-12-06T19:54:28.575Z,16.80
2022-12-06T19:57:49.364Z,14.32
2022-12-06T20:01:15.703Z,16.35
2022-12-06T20:04:28.805Z,16.52
2022-12-06T20:07:49.295Z,14.07
2022-12-06T20:11:03.763Z,13.32
2022-12-06T20:14:16.306Z,14.20
2022-12-06T20:17:26.910Z,13.75
2022-12-06T20:20:34.555Z,12.85
2022-12-06T20:23:46.278Z,13.40
2022-12-06T20:27:07.038Z,15.10
2022-12-06T20:30:15.404Z,14.30
2022-12-06T20:33:22.845Z,13.50
2022-12-06T20:36:34.264Z,12.27
2022-12-06T20:39:41.299Z,15.77
2022-12-06T20:42:54.857Z,16.23
2022-12-06T20:46:22.849Z,18.92
2022-12-06T20:49:32.688Z,17.77
2022-12-06T20:52:51.317Z,13.35
2022-12-06T20:56:09.191Z,17.20
2022-12-06T20:59:19.757Z,14.27
2022-12-06T21:02:31.349Z,15.30
2022-12-06T21:05:44.904Z,14.68
2022-12-06T21:08:50.570Z,13.18
2022-12-06T21:11:59.380Z,17.52
2022-12-06T21:15:09.148Z,13.93
2022-12-06T21:18:18.881Z,14.02
2022-12-06T21:21:31.187Z,16.10
2022-12-06T21:24:39.946Z,15.32
2022-12-06T21:27:45.484Z,14.35
2022-12-06T21:30:52.426Z,14.55
2022-12-06T21:33:56.975Z,12.63
2022-12-06T21:37:00.567Z,13.80
2022-12-06T21:40:05.886Z,13.30
2022-12-06T21:43:10.069Z,11.13
2022-12-06T21:46:15.517Z,12.70
2022-12-06T21:49:19.082Z,15.23
2022-12-06T21:52:22.509Z,15.50
2022-12-06T21:55:27.833Z,12.52
2022-12-06T21:58:31.469Z,13.68
2022-12-06T22:01:35.104Z,13.18
2022-12-06T22:04:39.734Z,13.35
2022-12-06T22:07:43.484Z,13.35
2022-12-06T22:10:52.466Z,13.13
2022-12-06T22:13:57.604Z,14.40
2022-12-06T22:17:01.043Z,13.20
2022-12-06T22:20:04.879Z,14.02
2022-12-06T22:23:08.478Z,15.85
2022-12-06T22:26:16.276Z,15.05
2022-12-06T22:29:19.573Z,14.27
2022-12-06T22:34:53.375Z,12.52
2022-12-06T22:37:56.761Z,18.33
2022-12-06T22:41:02.082Z,15.77
2022-12-06T22:44:07.129Z,13.63
2022-12-06T22:47:10.726Z,13.15
2022-12-06T22:50:16.384Z,11.98
2022-12-06T22:53:19.809Z,13.88
2022-12-06T22:56:25.670Z,13.15
2022-12-06T22:59:29.133Z,14.30
2022-12-06T23:02:33.114Z,17.25
2022-12-06T23:05:37.956Z,12.25
2022-12-06T23:08:41.418Z,14.65
2022-12-06T23:11:45.317Z,11.65
2022-12-06T23:14:48.742Z,11.15
2022-12-06T23:17:52.035Z,12.77
2022-12-06T23:21:10.268Z,13.45
2022-12-06T23:24:14.695Z,15.35
2022-12-06T23:27:18.942Z,15.38
2022-12-06T23:30:22.370Z,16.83
2022-12-06T23:33:26.141Z,17.38
2022-12-06T23:36:33.898Z,15.88
2022-12-06T23:39:37.321Z,13.35
2022-12-06T23:42:40.601Z,14.88
2022-12-06T23:45:44.187Z,13.73
2022-12-06T23:48:47.766Z,15.00
2022-12-06T23:51:52.461Z,13.55
2022-12-06T23:54:55.657Z,16.00
2022-12-06T23:57:59.051Z,14.18
